sensor_id;sensor_type;location;lat;lon;timestamp;temperature;humidity
31687;DHT22;18285;51.330;4.946;2023-03-23T00:06:32;26.20;36.30
31687;DHT22;18285;51.330;4.946;2023-03-23T00:30:45;26.20;36.30
31687;DHT22;18285;51.330;4.946;2023-03-23T00:54:55;26.20;36.20
31687;DHT22;18285;51.330;4.946;2023-03-23T01:19:06;26.20;36.10
31687;DHT22;18285;51.330;4.946;2023-03-23T01:43:17;26.30;35.90
31687;DHT22;18285;51.330;4.946;2023-03-23T02:07:27;26.70;35.10
31687;DHT22;18285;51.330;4.946;2023-03-23T02:55:54;26.50;35.10
31687;DHT22;18285;51.330;4.946;2023-03-23T03:20:06;26.40;35.20
31687;DHT22;18285;51.330;4.946;2023-03-23T03:44:22;26.10;35.40
31687;DHT22;18285;51.330;4.946;2023-03-23T04:08:32;25.90;35.40
31687;DHT22;18285;51.330;4.946;2023-03-23T04:32:43;25.80;35.60
31687;DHT22;18285;51.330;4.946;2023-03-23T04:56:54;25.80;35.60
31687;DHT22;18285;51.330;4.946;2023-03-23T05:21:04;25.60;35.40
31687;DHT22;18285;51.330;4.946;2023-03-23T05:45:15;25.50;35.60
31687;DHT22;18285;51.330;4.946;2023-03-23T06:09:26;25.40;36.00
31687;DHT22;18285;51.330;4.946;2023-03-23T06:33:38;25.30;35.90
31687;DHT22;18285;51.330;4.946;2023-03-23T06:57:48;25.20;36.20
31687;DHT22;18285;51.330;4.946;2023-03-23T07:21:59;25.00;38.00
31687;DHT22;18285;51.330;4.946;2023-03-23T07:46:10;25.20;37.60
31687;DHT22;18285;51.330;4.946;2023-03-23T08:10:22;25.10;37.00
31687;DHT22;18285;51.330;4.946;2023-03-23T08:34:33;24.90;37.10
31687;DHT22;18285;51.330;4.946;2023-03-23T08:58:44;25.00;37.00
31687;DHT22;18285;51.330;4.946;2023-03-23T09:22:56;24.90;37.00
31687;DHT22;18285;51.330;4.946;2023-03-23T10:36:25;24.80;37.60
31687;DHT22;18285;51.330;4.946;2023-03-23T11:00:45;24.60;37.60
31687;DHT22;18285;51.330;4.946;2023-03-23T11:25:01;24.60;37.70
31687;DHT22;18285;51.330;4.946;2023-03-23T11:49:35;24.60;37.60
31687;DHT22;18285;51.330;4.946;2023-03-23T12:39:00;24.60;37.50
31687;DHT22;18285;51.330;4.946;2023-03-23T13:03:28;24.60;37.40
31687;DHT22;18285;51.330;4.946;2023-03-23T13:27:40;24.60;36.90
31687;DHT22;18285;51.330;4.946;2023-03-23T13:52:00;24.50;38.10
31687;DHT22;18285;51.330;4.946;2023-03-23T14:16:21;24.50;38.40
31687;DHT22;18285;51.330;4.946;2023-03-23T14:40:34;24.40;38.90
31687;DHT22;18285;51.330;4.946;2023-03-23T15:04:47;24.40;39.50
31687;DHT22;18285;51.330;4.946;2023-03-23T15:29:24;24.50;39.50
31687;DHT22;18285;51.330;4.946;2023-03-23T15:53:37;24.30;39.90
31687;DHT22;18285;51.330;4.946;2023-03-23T16:17:50;24.20;40.00
31687;DHT22;18285;51.330;4.946;2023-03-23T16:42:01;23.60;41.30
31687;DHT22;18285;51.330;4.946;2023-03-23T17:06:11;23.70;41.20
31687;DHT22;18285;51.330;4.946;2023-03-23T17:30:22;23.80;42.70
31687;DHT22;18285;51.330;4.946;2023-03-23T17:54:33;23.90;43.80
31687;DHT22;18285;51.330;4.946;2023-03-23T18:18:45;24.20;42.20
31687;DHT22;18285;51.330;4.946;2023-03-23T18:42:56;24.20;41.20
31687;DHT22;18285;51.330;4.946;2023-03-23T19:07:08;24.20;40.80
31687;DHT22;18285;51.330;4.946;2023-03-23T19:31:19;24.00;40.90
31687;DHT22;18285;51.330;4.946;2023-03-23T19:55:34;24.10;41.20
31687;DHT22;18285;51.330;4.946;2023-03-23T20:19:46;24.10;41.20
31687;DHT22;18285;51.330;4.946;2023-03-23T20:43:57;24.10;42.00
31687;DHT22;18285;51.330;4.946;2023-03-23T21:08:09;24.20;41.70
31687;DHT22;18285;51.330;4.946;2023-03-23T21:32:20;24.10;41.80
31687;DHT22;18285;51.330;4.946;2023-03-23T21:56:31;24.00;41.30
31687;DHT22;18285;51.330;4.946;2023-03-23T22:20:42;23.90;41.50
31687;DHT22;18285;51.330;4.946;2023-03-23T22:44:53;23.90;41.80
31687;DHT22;18285;51.330;4.946;2023-03-23T23:09:04;23.90;41.90
31687;DHT22;18285;51.330;4.946;2023-03-23T23:33:15;23.90;42.00
31687;DHT22;18285;51.330;4.946;2023-03-23T23:57:26;23.90;41.80
